Terminal Aerodrome Forecast
Issued by NWS Upton, NY

Home | Current Version | Previous Version | Text Only | Print | Product List | Glossary On
Versions: 1 2 3 4 5 6 7 8 9 10 11 12 13 14 15 16 17 18 19 20 21 22 23 24 25 26 27 28 29 30 31 32 33
372
FTUS41 KOKX 271534 AAB
TAFISP
TAF AMD
KISP 271534Z 2716/2812 20006KT P6SM BKN040
     FM271900 17007KT P6SM BKN040
     FM280200 12004KT P6SM BKN035
     FM280900 13005KT P6SM SCT015 BKN035
      TEMPO 2809/2812 BKN015=

USA.gov is the U.S. government's official web portal to all federal, state and local government web resources and services.